Time;durP1;ratioP1;P1;durP2;ratioP2;P2;SDS_P1;SDS_P2;PMS_P1;PMS_P2;Temp;Humidity;BMP_temperature;BMP_pressure;BME280_temperature;BME280_humidity;BME280_pressure;Samples;Min_cycle;Max_cycle;Signal;HPM_P1;HPM_P2
2022/05/12 00:02:19;;;;;;;5.47;4.60;;;;;;;24.14;44.24;99626.34;4966091;28;20054;-82
2022/05/12 00:04:46;;;;;;;6.63;5.25;;;;;;;24.11;44.79;99626.81;4987529;28;20053;-82
2022/05/12 00:07:12;;;;;;;9.10;5.78;;;;;;;24.05;44.85;99623.13;4948552;28;20062;-83
2022/05/12 00:09:44;;;;;;;7.05;5.55;;;;;;;24.01;45.01;99623.81;4961835;28;20045;-83
2022/05/12 00:12:11;;;;;;;6.00;4.70;;;;;;;24.04;44.84;99637.75;4989968;28;20146;-80
2022/05/12 00:14:38;;;;;;;9.80;5.10;;;;;;;24.02;44.39;99645.28;4945168;28;20061;-84
2022/05/12 00:17:05;;;;;;;6.97;4.95;;;;;;;24.00;44.69;99643.88;4944099;28;20043;-83
2022/05/12 00:19:32;;;;;;;7.32;5.47;;;;;;;23.98;44.95;99638.66;4956984;28;20047;-83
2022/05/12 00:22:00;;;;;;;10.25;5.50;;;;;;;23.99;45.03;99642.19;4993153;28;20052;-83
2022/05/12 00:24:26;;;;;;;7.18;5.40;;;;;;;23.96;45.02;99651.63;4967147;28;20101;-83
2022/05/12 00:26:53;;;;;;;9.73;5.65;;;;;;;23.93;45.55;99646.66;4971925;28;20050;-82
2022/05/12 00:29:20;;;;;;;7.88;5.00;;;;;;;23.91;45.59;99650.66;4973048;28;20180;-83
2022/05/12 00:31:47;;;;;;;7.30;5.45;;;;;;;23.86;45.82;99650.50;4985150;28;20141;-83
2022/05/12 00:34:17;;;;;;;8.10;6.20;;;;;;;23.83;45.89;99658.03;4981020;28;20054;-93
2022/05/12 00:36:44;;;;;;;8.65;5.22;;;;;;;23.81;46.21;99659.31;4980698;28;20043;-92
2022/05/12 00:39:11;;;;;;;7.43;5.40;;;;;;;23.79;46.19;99656.03;4983602;28;20042;-85
2022/05/12 00:41:38;;;;;;;7.50;5.47;;;;;;;23.76;46.65;99661.88;4994403;28;20813;-93
2022/05/12 00:44:09;;;;;;;7.78;5.60;;;;;;;23.74;46.68;99664.81;4981911;28;20379;-83
2022/05/12 00:46:38;;;;;;;8.25;5.40;;;;;;;23.70;46.53;99670.88;4961123;28;20053;-82
2022/05/12 00:49:07;;;;;;;8.57;5.68;;;;;;;23.64;46.95;99672.63;4951131;28;20083;-83
2022/05/12 00:51:40;;;;;;;14.15;5.72;;;;;;;23.59;47.19;99667.06;4991348;28;20165;-83
2022/05/12 00:54:26;;;;;;;6.60;5.65;;;;;;;23.53;47.73;99665.22;4957422;28;20053;-93
2022/05/12 00:56:53;;;;;;;9.90;5.70;;;;;;;23.48;47.11;99671.31;4998234;28;20039;-80
2022/05/12 00:59:27;;;;;;;8.82;5.70;;;;;;;23.40;47.47;99675.13;4959214;28;20105;-80
2022/05/12 01:02:46;;;;;;;11.38;6.35;;;;;;;23.37;47.62;99672.06;4970545;28;20054;-92
2022/05/12 01:05:14;;;;;;;6.95;5.35;;;;;;;23.35;47.44;99674.16;4949125;28;20134;-94
2022/05/12 01:07:40;;;;;;;6.57;5.88;;;;;;;23.34;47.41;99681.47;4974191;28;20067;-93
2022/05/12 01:10:09;;;;;;;7.28;5.65;;;;;;;23.28;47.43;99685.06;4983578;28;20050;-93
2022/05/12 01:12:41;;;;;;;7.57;5.85;;;;;;;23.23;48.13;99679.50;4975261;28;20051;-92
2022/05/12 01:15:09;;;;;;;7.90;5.47;;;;;;;23.21;47.76;99683.47;4992938;28;20086;-93
2022/05/12 01:17:36;;;;;;;8.18;6.03;;;;;;;23.16;47.90;99676.84;4990510;28;20058;-93
2022/05/12 01:20:04;;;;;;;7.35;6.53;;;;;;;23.13;48.21;99680.00;4976900;28;20122;-83
2022/05/12 01:22:54;;;;;;;11.52;6.47;;;;;;;23.06;48.51;99684.63;4980917;28;20042;-83
2022/05/12 01:25:25;;;;;;;9.18;6.38;;;;;;;23.07;48.21;99680.88;4957987;28;20051;-83
2022/05/12 01:27:52;;;;;;;7.15;5.60;;;;;;;23.05;48.38;99685.69;4947569;28;20035;-83
2022/05/12 01:30:21;;;;;;;9.73;5.72;;;;;;;23.02;48.29;99696.13;4966902;28;20057;-83
2022/05/12 01:32:48;;;;;;;7.38;5.80;;;;;;;23.01;48.49;99697.19;4940090;28;20133;-83
2022/05/12 01:35:17;;;;;;;8.40;5.85;;;;;;;22.98;48.62;99698.44;4945469;28;20125;-84
2022/05/12 01:37:45;;;;;;;8.30;6.07;;;;;;;22.96;48.75;99697.81;4958209;28;20050;-83
2022/05/12 01:40:15;;;;;;;6.95;5.78;;;;;;;22.91;49.01;99703.88;4990287;28;20057;-83
2022/05/12 01:42:42;;;;;;;8.23;5.50;;;;;;;22.91;48.76;99700.34;4962287;28;20398;-80
2022/05/12 01:45:10;;;;;;;9.88;5.97;;;;;;;22.85;48.83;99710.19;4956447;28;20608;-80
2022/05/12 01:47:39;;;;;;;9.07;6.28;;;;;;;22.82;48.86;99699.78;4959110;28;20137;-80
2022/05/12 01:50:07;;;;;;;6.30;5.10;;;;;;;22.81;48.88;99708.94;4956942;28;20051;-80
2022/05/12 01:52:33;;;;;;;8.20;5.65;;;;;;;22.80;48.79;99706.47;4971612;28;20042;-80
2022/05/12 01:55:00;;;;;;;6.40;5.00;;;;;;;22.76;49.22;99706.06;4962156;28;20078;-93
2022/05/12 01:57:29;;;;;;;8.75;6.15;;;;;;;22.74;49.18;99702.75;4987101;28;20065;-80
2022/05/12 01:59:56;;;;;;;9.73;5.70;;;;;;;22.72;49.13;99712.97;4958438;28;20080;-80
2022/05/12 02:02:23;;;;;;;8.85;5.57;;;;;;;22.71;49.33;99709.41;4946792;28;20940;-81
2022/05/12 02:04:50;;;;;;;8.55;5.78;;;;;;;22.72;49.19;99721.09;4972966;28;20065;-83
2022/05/12 02:07:18;;;;;;;8.75;5.50;;;;;;;22.68;49.35;99725.28;4991837;28;20046;-94
2022/05/12 02:14:21;;;;;;;8.90;5.65;;;;;;;22.67;49.21;99723.59;4957702;28;20038;-83
2022/05/12 02:16:48;;;;;;;7.47;5.70;;;;;;;22.65;49.23;99745.50;4973979;28;20058;-83
2022/05/12 02:19:14;;;;;;;10.52;5.97;;;;;;;22.65;49.37;99741.97;4961127;28;20046;-83
2022/05/12 02:21:41;;;;;;;10.45;5.80;;;;;;;22.65;49.30;99742.78;4990871;28;20042;-83
2022/05/12 02:24:08;;;;;;;9.60;6.35;;;;;;;22.62;49.50;99745.94;4945005;28;20097;-83
2022/05/12 02:26:39;;;;;;;11.65;6.35;;;;;;;22.60;49.63;99745.31;4955274;28;20448;-83
2022/05/12 02:29:06;;;;;;;8.90;5.25;;;;;;;22.61;49.56;99743.44;4977193;28;20047;-83
2022/05/12 02:31:33;;;;;;;10.98;5.53;;;;;;;22.60;49.59;99750.72;4979004;28;20062;-83
2022/05/12 02:34:00;;;;;;;8.50;5.38;;;;;;;22.58;49.85;99751.97;4981195;28;20049;-93
2022/05/12 02:36:27;;;;;;;8.18;5.43;;;;;;;22.55;49.82;99761.38;4983361;28;20340;-80
2022/05/12 02:38:53;;;;;;;9.68;5.80;;;;;;;22.58;49.55;99765.50;4944026;28;20057;-80
2022/05/12 02:41:20;;;;;;;7.57;5.68;;;;;;;22.54;49.77;99773.22;4964014;28;20050;-80
2022/05/12 02:43:47;;;;;;;6.50;5.18;;;;;;;22.51;49.92;99766.34;4963038;28;20055;-80
2022/05/12 02:46:14;;;;;;;9.88;5.88;;;;;;;22.46;49.79;99768.88;4961871;28;20438;-83
2022/05/12 02:48:43;;;;;;;13.38;5.55;;;;;;;22.47;49.74;99775.16;4962882;28;20082;-83
2022/05/12 02:51:11;;;;;;;8.57;5.07;;;;;;;22.46;49.79;99777.00;4968842;28;20062;-94
2022/05/12 02:53:38;;;;;;;9.75;5.10;;;;;;;22.47;49.82;99784.09;4994443;28;20123;-93
2022/05/12 02:56:05;;;;;;;7.43;5.20;;;;;;;22.48;49.55;99780.31;4988196;28;20123;-80
2022/05/12 02:58:33;;;;;;;9.00;5.75;;;;;;;22.53;49.50;99788.63;4945491;28;20466;-80
2022/05/12 03:01:00;;;;;;;8.48;4.75;;;;;;;22.53;49.20;99788.63;4923010;28;20050;-80
2022/05/12 03:03:27;;;;;;;5.68;4.80;;;;;;;22.57;49.27;99794.47;4931186;28;20494;-80
2022/05/12 03:05:55;;;;;;;8.13;4.10;;;;;;;22.60;48.77;99790.50;4945370;28;20062;-80
2022/05/12 03:08:21;;;;;;;6.70;4.45;;;;;;;22.64;48.23;99792.53;4953818;28;20046;-80
2022/05/12 03:10:51;;;;;;;10.25;4.50;;;;;;;22.68;48.26;99798.34;4955624;28;20237;-81
2022/05/12 03:13:18;;;;;;;6.72;4.20;;;;;;;22.69;48.19;99800.84;4978366;28;20073;-81
2022/05/12 03:15:51;;;;;;;6.03;4.18;;;;;;;22.68;48.58;99804.59;4978335;28;20473;-80
2022/05/12 03:18:19;;;;;;;6.38;4.65;;;;;;;22.66;48.40;99798.56;4960814;28;20055;-81
2022/05/12 03:20:47;;;;;;;6.20;4.40;;;;;;;22.64;48.54;99805.25;4959104;28;20077;-81
2022/05/12 03:23:24;;;;;;;;;;;;;;;22.60;48.70;99801.31;4968113;28;20146;-81
2022/05/12 03:25:56;;;;;;;5.90;4.20;;;;;;;22.61;48.39;99801.09;4973492;28;19976;-83
2022/05/12 03:28:23;;;;;;;4.68;3.75;;;;;;;22.62;48.58;99804.63;4974257;28;20046;-82
2022/05/12 03:30:50;;;;;;;15.10;4.30;;;;;;;22.59;48.48;99810.47;4958735;28;20053;-83
2022/05/12 03:33:21;;;;;;;4.57;3.70;;;;;;;22.53;48.48;99806.75;4971174;28;20046;-79
2022/05/12 03:35:49;;;;;;;7.97;3.80;;;;;;;22.53;48.71;99815.69;4960893;28;20051;-83
2022/05/12 03:38:16;;;;;;;4.80;3.33;;;;;;;22.49;48.71;99824.44;4983740;28;20063;-80
2022/05/12 03:40:46;;;;;;;5.90;3.75;;;;;;;22.47;48.86;99826.56;4968002;28;20047;-79
2022/05/12 03:44:46;;;;;;;4.18;3.60;;;;;;;22.41;48.77;99824.69;4977665;28;20043;-79
2022/05/12 03:46:04;;;;;;;6.15;2.97;;;;;;;22.35;48.95;99828.25;4977887;28;20126;-80
2022/05/12 03:48:31;;;;;;;7.53;3.50;;;;;;;22.32;48.88;99834.94;4981426;28;20058;-79
2022/05/12 03:50:58;;;;;;;6.72;3.65;;;;;;;22.28;49.07;99839.91;4949727;28;20494;-79
2022/05/12 03:53:25;;;;;;;4.75;3.38;;;;;;;22.31;48.73;99852.19;4986292;28;20049;-79
2022/05/12 03:55:52;;;;;;;6.00;3.72;;;;;;;22.28;48.72;99850.72;4977475;28;20520;-79
2022/05/12 03:58:18;;;;;;;3.75;3.20;;;;;;;22.23;49.03;99863.22;4976371;28;20129;-79
2022/05/12 04:00:45;;;;;;;5.53;3.47;;;;;;;22.20;48.97;99867.19;4979171;28;20097;-79
2022/05/12 04:03:12;;;;;;;9.63;3.60;;;;;;;22.19;49.08;99879.06;4984919;28;20046;-82
2022/05/12 04:05:40;;;;;;;5.65;3.67;;;;;;;22.15;49.10;99880.47;4956575;28;20866;-85
2022/05/12 04:08:08;;;;;;;5.82;3.03;;;;;;;22.15;48.99;99885.06;4968110;28;20442;-87
2022/05/12 04:10:35;;;;;;;6.95;3.28;;;;;;;22.14;48.89;99892.34;4981238;28;20058;-83
2022/05/12 04:13:02;;;;;;;4.20;3.80;;;;;;;22.15;49.13;99898.59;4980486;28;20125;-81
2022/05/12 04:15:54;;;;;;;11.20;3.63;;;;;;;22.10;49.38;99893.81;4985032;28;20073;-79
2022/05/12 04:18:21;;;;;;;7.32;2.90;;;;;;;22.18;48.92;99900.88;4948295;28;20064;-79
2022/05/12 04:20:47;;;;;;;4.50;3.28;;;;;;;22.15;48.96;99898.59;4977480;28;20065;-78
2022/05/12 04:23:17;;;;;;;5.15;3.33;;;;;;;22.19;48.80;99908.81;4975031;28;25628;-79
2022/05/12 04:25:44;;;;;;;5.65;3.58;;;;;;;22.24;48.96;99914.44;4978820;28;20052;-80
2022/05/12 04:28:11;;;;;;;7.10;3.40;;;;;;;22.24;48.94;99924.44;4974239;28;20047;-80
2022/05/12 04:30:38;;;;;;;7.45;3.67;;;;;;;22.25;48.62;99920.66;4981755;28;20047;-81
2022/05/12 04:35:51;;;;;;;6.78;3.28;;;;;;;22.29;48.47;99928.16;4962596;28;20047;-83
2022/05/12 04:38:19;;;;;;;3.50;2.60;;;;;;;22.33;48.27;99933.97;4963245;28;20520;-81
2022/05/12 04:40:51;;;;;;;4.25;3.00;;;;;;;22.36;48.07;99944.34;4964855;28;20116;-81
2022/05/12 04:43:18;;;;;;;9.75;3.17;;;;;;;22.40;47.87;99936.69;4952916;28;20065;-81
2022/05/12 04:45:45;;;;;;;7.00;2.60;;;;;;;22.42;47.83;99948.13;4939165;28;20442;-81
2022/05/12 04:48:11;;;;;;;10.32;2.72;;;;;;;22.45;47.64;99945.00;4942974;28;20406;-81
2022/05/12 04:50:41;;;;;;;5.28;2.53;;;;;;;22.50;47.67;99945.19;4940897;28;20108;-81
2022/05/12 04:53:08;;;;;;;3.67;2.28;;;;;;;22.52;47.36;99948.53;4968113;28;20045;-81
2022/05/12 04:55:35;;;;;;;4.60;2.72;;;;;;;22.54;47.33;99957.25;4960803;28;20047;-81
2022/05/12 04:58:02;;;;;;;3.85;2.85;;;;;;;22.54;47.75;99958.09;4941184;28;20047;-81
2022/05/12 05:00:40;;;;;;;8.25;2.78;;;;;;;22.56;47.54;99960.56;4953270;28;20053;-81
2022/05/12 05:03:08;;;;;;;5.90;2.58;;;;;;;22.60;47.19;99963.72;4958401;28;20137;-81
2022/05/12 05:05:35;;;;;;;4.15;2.45;;;;;;;22.66;47.29;99973.66;4957473;28;20102;-81
2022/05/12 05:08:03;;;;;;;4.00;2.40;;;;;;;22.67;47.13;99975.31;4957863;28;20410;-81
2022/05/12 05:10:32;;;;;;;5.53;2.53;;;;;;;22.72;47.05;99979.09;4955967;28;20886;-82
2022/05/12 05:12:59;;;;;;;2.60;2.40;;;;;;;22.75;47.03;99985.94;4949735;28;20042;-81
2022/05/12 05:15:26;;;;;;;3.97;2.35;;;;;;;22.78;47.03;99984.69;4955679;28;20105;-81
2022/05/12 05:17:53;;;;;;;5.45;2.58;;;;;;;22.80;47.06;99991.56;4958473;28;20457;-81
2022/05/12 05:20:23;;;;;;;4.60;2.58;;;;;;;22.81;47.34;99992.38;4978574;28;20541;-81
2022/05/12 05:22:49;;;;;;;3.45;2.50;;;;;;;22.82;47.68;99994.03;4968040;28;20112;-81
2022/05/12 05:25:16;;;;;;;3.47;2.40;;;;;;;22.82;47.62;100004.88;4945171;28;20070;-81
2022/05/12 05:27:46;;;;;;;4.28;2.05;;;;;;;22.81;47.96;100005.94;4944462;28;20053;-81
2022/05/12 05:30:15;;;;;;;5.95;2.60;;;;;;;22.83;48.19;100006.56;4971457;28;20058;-81
2022/05/12 05:32:42;;;;;;;4.70;2.28;;;;;;;22.83;48.19;100012.78;4979008;28;20090;-79
2022/05/12 05:35:12;;;;;;;2.67;2.30;;;;;;;22.81;48.61;100017.59;4966144;28;20047;-79
2022/05/12 05:37:41;;;;;;;7.22;2.78;;;;;;;22.81;48.34;100019.47;4963813;28;20348;-79
2022/05/12 05:40:09;;;;;;;5.57;2.75;;;;;;;22.81;48.71;100035.72;4948501;28;20046;-79
2022/05/12 05:42:38;;;;;;;7.05;2.28;;;;;;;22.82;48.04;100038.22;4980664;28;20406;-79
2022/05/12 05:45:10;;;;;;;4.55;2.00;;;;;;;22.83;47.95;100033.63;4972087;28;20072;-79
2022/05/12 05:47:39;;;;;;;5.13;2.13;;;;;;;22.84;48.36;100044.22;4973343;28;20044;-79
2022/05/12 05:50:10;;;;;;;6.15;2.10;;;;;;;22.85;48.82;100053.22;4977263;28;20134;-79
2022/05/12 05:55:22;;;;;;;7.10;2.25;;;;;;;22.86;48.15;100060.28;4988252;28;20050;-79
2022/05/12 05:57:49;;;;;;;4.75;2.00;;;;;;;22.87;48.33;100061.94;4983431;28;20938;-79
2022/05/12 06:00:17;;;;;;;4.00;2.00;;;;;;;22.87;47.99;100062.78;4977780;28;20483;-79
2022/05/12 06:02:43;;;;;;;2.72;1.92;;;;;;;22.89;48.09;100071.50;4976435;28;20081;-79
2022/05/12 06:05:10;;;;;;;2.58;2.20;;;;;;;22.92;47.80;100067.53;4960986;28;20049;-79
2022/05/12 06:07:39;;;;;;;5.25;1.90;;;;;;;22.94;47.56;100077.13;4967676;28;20047;-79
2022/05/12 06:10:06;;;;;;;5.30;1.90;;;;;;;22.96;47.87;100079.63;4977504;28;20508;-79
2022/05/12 06:12:38;;;;;;;4.07;2.10;;;;;;;23.01;47.75;100084.44;4981140;28;20049;-82
2022/05/12 06:15:05;;;;;;;3.90;2.15;;;;;;;23.02;47.80;100083.41;4971157;28;20392;-82
2022/05/12 06:17:35;;;;;;;3.45;2.08;;;;;;;23.03;47.49;100085.09;4966375;28;20078;-82
2022/05/12 06:20:04;;;;;;;2.97;2.10;;;;;;;23.04;47.43;100090.25;4991982;28;20043;-81
2022/05/12 06:22:31;;;;;;;4.07;2.33;;;;;;;23.01;47.57;100093.41;4994666;28;20056;-81
2022/05/12 06:24:57;;;;;;;4.20;2.60;;;;;;;23.01;47.90;100098.00;4966051;28;20042;-81
2022/05/12 06:27:24;;;;;;;2.30;2.10;;;;;;;23.04;48.09;100098.41;4970505;28;20057;-81
2022/05/12 06:29:51;;;;;;;3.63;2.33;;;;;;;23.08;47.79;100096.94;4952862;28;20062;-82
2022/05/12 06:32:18;;;;;;;5.00;2.53;;;;;;;23.13;47.57;100096.31;4976339;28;20508;-82
2022/05/12 06:34:46;;;;;;;4.15;2.22;;;;;;;23.07;48.08;100105.25;4973483;28;20050;-82
2022/05/12 06:37:13;;;;;;;2.97;2.08;;;;;;;23.03;48.01;100093.19;4975105;28;20043;-81
2022/05/12 06:39:40;;;;;;;2.40;1.98;;;;;;;23.02;47.79;100100.47;4982806;28;20105;-83
2022/05/12 06:42:08;;;;;;;4.70;2.30;;;;;;;22.99;47.79;100100.91;4957632;28;20450;-82
2022/05/12 06:44:43;;;;;;;6.30;2.25;;;;;;;23.07;47.88;100103.38;4974113;28;20050;-82
2022/05/12 06:47:13;;;;;;;6.03;1.98;;;;;;;23.18;47.81;100101.94;4961844;28;20493;-82
2022/05/12 06:49:40;;;;;;;3.17;2.05;;;;;;;23.25;47.94;100110.03;4972707;28;20149;-82
2022/05/12 06:52:08;;;;;;;3.60;2.42;;;;;;;23.28;47.89;100110.44;4974177;28;20078;-81
2022/05/12 06:54:37;;;;;;;4.22;1.90;;;;;;;23.28;47.38;100115.88;4980407;28;20528;-82
2022/05/12 06:57:05;;;;;;;4.32;2.20;;;;;;;23.27;47.62;100113.34;4938708;28;20046;-82
2022/05/12 06:59:31;;;;;;;6.50;1.80;;;;;;;23.27;47.61;100119.59;4964784;28;20062;-82
2022/05/12 07:01:58;;;;;;;8.55;2.55;;;;;;;23.34;47.70;100116.88;4982178;28;20050;-82
2022/05/12 07:04:25;;;;;;;4.03;2.20;;;;;;;23.42;47.53;100126.66;4981566;28;20067;-83
2022/05/12 07:06:53;;;;;;;4.55;2.28;;;;;;;23.45;47.57;100118.09;4987350;28;20380;-82
2022/05/12 07:09:20;;;;;;;4.32;1.88;;;;;;;23.47;47.59;100138.53;4965726;28;20043;-82
2022/05/12 07:11:47;;;;;;;6.00;2.28;;;;;;;23.58;47.51;100127.03;4968411;28;20046;-82
2022/05/12 07:14:14;;;;;;;3.83;1.92;;;;;;;23.62;47.63;100130.16;4974313;28;20050;-82
2022/05/12 07:16:45;;;;;;;7.47;2.28;;;;;;;23.53;47.63;100142.25;4979350;28;20055;-81
2022/05/12 07:19:15;;;;;;;4.15;2.17;;;;;;;23.31;47.55;100130.88;4952604;28;20052;-82
2022/05/12 07:27:17;;;;;;;3.63;1.90;;;;;;;23.15;47.96;100141.09;4981560;28;20062;-82
2022/05/12 07:29:45;;;;;;;3.00;1.98;;;;;;;23.26;47.82;100134.22;4971818;28;20078;-82
2022/05/12 07:32:13;;;;;;;9.55;2.08;;;;;;;23.33;47.78;100137.75;4978009;28;20130;-81
2022/05/12 07:34:40;;;;;;;5.15;1.67;;;;;;;23.36;47.57;100136.47;4983563;28;20129;-82
2022/05/12 07:37:07;;;;;;;7.03;1.70;;;;;;;23.43;47.25;100137.28;4972194;28;20049;-82
2022/05/12 07:39:36;;;;;;;2.25;1.80;;;;;;;23.45;47.53;100142.50;4982207;28;20057;-81
2022/05/12 07:42:05;;;;;;;3.97;1.67;;;;;;;23.48;47.36;100145.59;4982655;28;20546;-82
2022/05/12 07:44:32;;;;;;;1.77;1.52;;;;;;;23.47;46.92;100141.25;4986735;28;20138;-82
2022/05/12 07:47:04;;;;;;;4.07;1.52;;;;;;;23.44;46.22;100143.56;4972220;28;20051;-82
2022/05/12 07:49:36;;;;;;;5.30;2.10;;;;;;;23.46;45.03;100141.44;4959366;28;20130;-82
2022/05/12 07:52:05;;;;;;;2.97;1.50;;;;;;;23.25;45.88;100151.50;4978141;28;20043;-81
2022/05/12 07:54:32;;;;;;;3.78;1.92;;;;;;;23.30;47.09;100138.13;4950579;28;20042;-82
2022/05/12 07:56:59;;;;;;;7.40;1.90;;;;;;;23.36;46.89;100150.84;4960492;28;20042;-82
2022/05/12 07:59:27;;;;;;;5.63;1.80;;;;;;;23.36;46.63;100163.59;4976779;28;20045;-81
2022/05/12 08:01:54;;;;;;;3.22;1.77;;;;;;;23.42;46.13;100156.47;4980869;28;20129;-82
2022/05/12 08:04:21;;;;;;;6.03;2.08;;;;;;;23.42;46.20;100159.19;4956937;28;20094;-81
2022/05/12 08:06:48;;;;;;;2.38;1.50;;;;;;;23.51;46.19;100166.03;4959271;28;20058;-81
2022/05/12 08:09:15;;;;;;;3.45;1.63;;;;;;;23.57;46.15;100166.03;4942076;28;20049;-81
2022/05/12 08:11:42;;;;;;;4.05;1.92;;;;;;;23.57;45.78;100173.31;4969842;28;20051;-81
2022/05/12 08:14:10;;;;;;;2.60;1.73;;;;;;;23.53;44.96;100175.59;4960102;28;20431;-81
2022/05/12 08:16:37;;;;;;;3.50;1.70;;;;;;;23.46;45.70;100171.25;4983648;28;20053;-81
2022/05/12 08:19:05;;;;;;;4.50;1.77;;;;;;;23.49;46.13;100168.13;4979806;28;20514;-81
2022/05/12 08:21:31;;;;;;;2.80;1.65;;;;;;;23.52;45.89;100183.97;4969183;28;20486;-81
2022/05/12 08:23:58;;;;;;;3.17;1.60;;;;;;;23.56;46.08;100169.78;4962910;28;20631;-81
2022/05/12 08:26:25;;;;;;;4.00;1.90;;;;;;;23.52;46.14;100173.97;4973442;28;20047;-83
2022/05/12 08:28:52;;;;;;;4.00;1.70;;;;;;;23.58;45.65;100180.41;4955592;28;20054;-82
2022/05/12 08:31:21;;;;;;;3.08;1.73;;;;;;;23.66;45.94;100176.63;4974638;28;20049;-81
2022/05/12 08:33:48;;;;;;;4.32;1.90;;;;;;;23.66;46.32;100187.47;4978638;28;20133;-82
2022/05/12 08:36:15;;;;;;;3.25;1.92;;;;;;;23.59;45.79;100179.38;4965202;28;20049;-82
2022/05/12 08:38:44;;;;;;;4.28;1.95;;;;;;;23.53;45.92;100200.00;4959960;28;20039;-81
2022/05/12 08:41:23;;;;;;;3.88;2.20;;;;;;;23.37;45.72;100186.91;4944858;28;20043;-81
2022/05/12 08:43:56;;;;;;;3.92;1.60;;;;;;;23.40;45.59;100192.72;4950134;28;20137;-82
2022/05/12 08:46:53;;;;;;;2.58;1.77;;;;;;;23.31;45.94;100198.59;4954771;28;20039;-81
2022/05/12 08:49:22;;;;;;;4.30;1.80;;;;;;;23.45;45.42;100202.94;4939132;28;20140;-81
2022/05/12 08:52:06;;;;;;;3.08;2.15;;;;;;;23.46;44.89;100204.63;4984908;28;20500;-82
2022/05/12 08:54:35;;;;;;;4.60;1.83;;;;;;;23.52;44.85;100205.66;4963600;28;20062;-81
2022/05/12 08:57:05;;;;;;;5.32;1.83;;;;;;;23.48;45.07;100207.94;4962599;28;20633;-82
2022/05/12 08:59:34;;;;;;;3.10;1.85;;;;;;;23.50;44.96;100210.44;4982750;28;20117;-82
2022/05/12 09:02:10;;;;;;;4.95;1.42;;;;;;;23.47;45.35;100203.56;4989852;28;20182;-81
2022/05/12 09:04:49;;;;;;;3.70;1.58;;;;;;;23.51;45.06;100212.09;4990755;28;20054;-80
2022/05/12 09:07:45;;;;;;;3.53;1.52;;;;;;;23.65;45.06;100207.50;4994893;28;20120;-79
2022/05/12 09:10:39;;;;;;;2.83;1.73;;;;;;;23.50;45.19;100205.84;4958903;28;20548;-79
2022/05/12 09:13:26;;;;;;;5.63;1.75;;;;;;;23.60;44.90;100213.56;4970093;28;20054;-79
2022/05/12 09:16:08;;;;;;;4.63;1.90;;;;;;;23.59;44.68;100214.63;4910680;28;20047;-79
2022/05/12 09:18:36;;;;;;;3.50;1.87;;;;;;;23.50;45.14;100216.69;4947927;28;20105;-79
2022/05/12 09:21:18;;;;;;;3.80;1.70;;;;;;;23.48;44.76;100215.25;4962658;28;20046;-79
2022/05/12 09:23:45;;;;;;;3.15;1.73;;;;;;;23.53;44.81;100212.72;4968822;28;20042;-79
2022/05/12 09:26:39;;;;;;;5.40;1.80;;;;;;;23.41;44.60;100209.84;4946148;28;20597;-78
2022/05/12 09:29:31;;;;;;;2.35;1.60;;;;;;;23.45;44.70;100210.25;4945124;28;20062;-78
2022/05/12 09:32:04;;;;;;;2.72;1.63;;;;;;;23.47;44.28;100209.00;4930678;28;20494;-80
2022/05/12 09:34:43;;;;;;;4.10;1.77;;;;;;;23.45;44.11;100208.38;4977367;28;20065;-82
2022/05/12 09:37:13;;;;;;;5.40;1.52;;;;;;;23.57;44.49;100203.16;4972825;28;20234;-81
2022/05/12 09:39:51;;;;;;;4.93;1.73;;;;;;;23.57;44.15;100206.69;4964764;28;20042;-81
2022/05/12 09:42:38;;;;;;;3.53;1.73;;;;;;;23.48;44.09;100207.94;4962575;28;20521;-82
2022/05/12 09:45:18;;;;;;;5.88;2.10;;;;;;;23.57;44.33;100205.84;4939063;28;20077;-82
2022/05/12 09:47:45;;;;;;;4.22;1.60;;;;;;;23.61;44.20;100210.66;4930904;28;20454;-82
2022/05/12 09:50:21;;;;;;;6.32;1.67;;;;;;;23.67;44.20;100210.84;4958711;28;20050;-81
2022/05/12 09:52:53;;;;;;;3.05;2.00;;;;;;;23.73;44.05;100202.72;4981572;28;20117;-82
2022/05/12 09:55:28;;;;;;;2.83;1.58;;;;;;;23.77;44.00;100209.38;4983794;28;20046;-81
2022/05/12 09:58:22;;;;;;;6.15;1.65;;;;;;;23.77;43.91;100203.97;4978148;28;20046;-81
2022/05/12 10:01:16;;;;;;;7.30;1.70;;;;;;;23.60;43.78;100211.69;4940821;28;20047;-81
2022/05/12 10:09:23;;;;;;;4.32;1.83;;;;;;;23.69;44.34;100203.34;4971993;28;20066;-82
2022/05/12 10:12:00;;;;;;;5.18;2.40;;;;;;;23.59;44.05;100201.88;4940812;28;20077;-82
2022/05/12 10:14:50;;;;;;;4.55;2.03;;;;;;;23.61;44.04;100216.06;4964282;28;20384;-82
2022/05/12 10:17:27;;;;;;;4.45;1.70;;;;;;;23.75;43.97;100200.63;4949691;28;20058;-82
2022/05/12 10:19:55;;;;;;;5.68;1.60;;;;;;;23.66;44.19;100206.44;4961345;28;20141;-82
2022/05/12 10:22:30;;;;;;;5.13;1.83;;;;;;;23.72;43.78;100211.03;4974367;28;20051;-82
2022/05/12 10:25:10;;;;;;;4.47;1.52;;;;;;;23.76;43.63;100201.44;4965281;28;20158;-82
2022/05/12 10:27:55;;;;;;;4.32;1.80;;;;;;;23.81;44.05;100194.34;4934063;28;20074;-82
2022/05/12 10:30:37;;;;;;;8.25;2.22;;;;;;;23.80;44.32;100197.28;4970799;28;20156;-81
2022/05/12 10:33:21;;;;;;;6.30;1.80;;;;;;;23.83;44.26;100183.28;4969021;28;20054;-80
2022/05/12 10:36:08;;;;;;;1.98;1.30;;;;;;;23.87;44.43;100176.41;4926268;28;20055;-80
2022/05/12 10:38:44;;;;;;;4.20;2.40;;;;;;;23.82;44.01;100179.75;4932499;28;20087;-80
2022/05/12 10:41:23;;;;;;;4.55;1.83;;;;;;;23.85;43.84;100173.06;4931180;28;20143;-80
2022/05/12 10:44:13;;;;;;;5.85;1.90;;;;;;;23.85;43.62;100175.78;4918644;28;20551;-80
2022/05/12 10:47:09;;;;;;;3.67;2.00;;;;;;;23.93;43.57;100167.38;4910384;28;20055;-80
2022/05/12 10:50:00;;;;;;;1.90;1.48;;;;;;;23.84;43.48;100157.84;4926391;28;20534;-80
2022/05/12 10:52:43;;;;;;;2.88;1.50;;;;;;;23.80;43.58;100159.31;4863912;29;20048;-82
2022/05/12 10:55:21;;;;;;;3.67;1.63;;;;;;;23.77;43.11;100167.88;4933686;28;20055;-81
2022/05/12 10:58:22;;;;;;;3.60;1.83;;;;;;;23.73;43.49;100161.22;4937993;28;20430;-81
2022/05/12 11:01:04;;;;;;;3.22;1.50;;;;;;;23.75;43.33;100159.13;4870806;29;20048;-81
2022/05/12 11:03:51;;;;;;;4.82;1.50;;;;;;;23.81;43.69;100160.97;4902604;29;20040;-81
2022/05/12 11:06:19;;;;;;;3.40;1.92;;;;;;;23.96;43.17;100152.56;4938010;28;20058;-81
2022/05/12 11:09:12;;;;;;;7.75;1.80;;;;;;;23.77;43.37;100146.19;4930790;28;20047;-82
2022/05/12 11:11:49;;;;;;;8.45;2.10;;;;;;;23.77;43.67;100160.56;4917024;28;20061;-81
2022/05/12 11:14:31;;;;;;;5.28;1.70;;;;;;;23.70;43.77;100148.88;4890538;28;20143;-81
2022/05/12 11:17:12;;;;;;;6.35;1.90;;;;;;;23.73;44.25;100147.66;4954761;28;20062;-81
2022/05/12 11:19:43;;;;;;;3.17;1.77;;;;;;;23.82;44.19;100143.66;4917791;28;20043;-81
2022/05/12 11:22:36;;;;;;;4.20;2.05;;;;;;;23.85;44.08;100154.06;4925454;28;20055;-82
2022/05/12 11:25:39;;;;;;;3.47;1.77;;;;;;;23.94;43.49;100141.94;4905121;29;20059;-81
2022/05/12 11:31:41;;;;;;;4.45;1.95;;;;;;;23.72;44.43;100146.81;4905907;28;20133;-81
2022/05/12 11:34:10;;;;;;;3.40;1.88;;;;;;;23.87;44.12;100143.84;4976249;28;20045;-82
2022/05/12 11:36:39;;;;;;;6.13;2.28;;;;;;;23.88;43.72;100137.38;4975510;28;20039;-81
2022/05/12 11:39:25;;;;;;;3.03;1.67;;;;;;;23.78;43.90;100145.94;4972346;28;20130;-81
2022/05/12 11:42:22;;;;;;;5.05;1.73;;;;;;;23.84;43.74;100133.44;4937732;28;20056;-81
2022/05/12 11:45:07;;;;;;;2.97;2.15;;;;;;;23.99;44.14;100133.13;4915274;28;20050;-81
2022/05/12 11:47:53;;;;;;;5.68;1.90;;;;;;;24.05;43.95;100124.97;4969403;28;20057;-82
2022/05/12 11:50:42;;;;;;;5.38;1.60;;;;;;;24.06;44.26;100131.22;4958884;28;20050;-82
2022/05/12 11:53:12;;;;;;;2.13;1.80;;;;;;;24.11;44.20;100133.28;4959251;28;20065;-81
2022/05/12 11:56:07;;;;;;;4.82;2.17;;;;;;;24.14;44.71;100130.97;4982911;28;20101;-82
2022/05/12 11:58:46;;;;;;;4.85;1.88;;;;;;;24.18;43.37;100126.78;4934523;28;20051;-82
2022/05/12 12:01:21;;;;;;;3.10;1.58;;;;;;;24.22;43.27;100116.31;4981020;28;20697;-82
2022/05/12 12:03:59;;;;;;;4.90;1.63;;;;;;;24.22;43.30;100113.59;4993939;28;20058;-82
2022/05/12 12:06:46;;;;;;;4.28;1.80;;;;;;;24.16;43.76;100120.72;4970738;28;20042;-82
2022/05/12 12:09:25;;;;;;;6.25;1.90;;;;;;;24.15;44.04;100119.09;4959855;28;20406;-82
2022/05/12 12:11:51;;;;;;;5.07;1.98;;;;;;;24.15;44.19;100115.53;4974155;28;20126;-82
2022/05/12 12:14:46;;;;;;;7.10;1.75;;;;;;;24.16;44.04;100112.59;4960085;28;20038;-82
2022/05/12 12:17:25;;;;;;;1.75;1.60;;;;;;;24.21;43.03;100106.50;4961401;28;20540;-81